Time,TemperatureF,DewpointF,PressureIn,WindDirection,WindDirectionDegrees,WindSpeedMPH,WindSpeedGustMPH,Humidity,HourlyPrecipIn,Conditions,Clouds,dailyrainin,SoftwareType,DateUTC
2013-07-20 00:05:00,75.9,75.0,29.97,NNE,15,0.0,0.0,97,0.00,,,0.00,weatherlink.com 1.10,2013-07-20 05:05:00,
2013-07-20 00:20:00,76.1,75.0,29.96,NE,51,0.0,1.0,97,0.00,,,0.00,weatherlink.com 1.10,2013-07-20 05:20:00,
2013-07-20 00:35:00,76.2,75.0,29.96,East,94,0.0,0.0,97,0.00,,,0.00,weatherlink.com 1.10,2013-07-20 05:35:00,
2013-07-20 00:50:00,75.9,75.0,29.96,NE,34,0.0,0.0,98,0.00,,,0.00,weatherlink.com 1.10,2013-07-20 05:50:00,
2013-07-20 01:05:00,75.8,75.0,29.96,NE,46,0.0,0.0,98,0.00,,,0.00,weatherlink.com 1.10,2013-07-20 06:05:00,
2013-07-20 01:20:00,75.7,75.0,29.96,NE,53,0.0,0.0,98,0.00,,,0.00,weatherlink.com 1.10,2013-07-20 06:20:00,
2013-07-20 01:35:00,75.7,75.0,29.96,NE,55,0.0,0.0,98,0.00,,,0.00,weatherlink.com 1.10,2013-07-20 06:35:00,
2013-07-20 01:50:00,75.6,75.0,29.95,North,357,0.0,0.0,98,0.00,,,0.00,weatherlink.com 1.10,2013-07-20 06:50:00,
2013-07-20 02:05:00,75.4,75.0,29.95,NNE,30,0.0,0.0,99,0.00,,,0.00,weatherlink.com 1.10,2013-07-20 07:05:00,
2013-07-20 02:20:00,75.4,75.0,29.95,ENE,74,0.0,0.0,99,0.00,,,0.00,weatherlink.com 1.10,2013-07-20 07:20:00,
2013-07-20 02:35:00,75.2,75.0,29.95,ENE,73,0.0,0.0,99,0.00,,,0.00,weatherlink.com 1.10,2013-07-20 07:35:00,
2013-07-20 02:50:00,75.2,75.0,29.95,ENE,73,0.0,0.0,99,0.00,,,0.00,weatherlink.com 1.10,2013-07-20 07:50:00,
2013-07-20 03:05:00,75.4,75.0,29.95,ENE,72,0.0,0.0,99,0.00,,,0.00,weatherlink.com 1.10,2013-07-20 08:05:00,
2013-07-20 03:20:00,75.4,75.0,29.94,NNE,32,0.0,0.0,99,0.00,,,0.00,weatherlink.com 1.10,2013-07-20 08:20:00,
2013-07-20 03:35:00,75.2,75.0,29.94,NNE,33,0.0,0.0,99,0.00,,,0.00,weatherlink.com 1.10,2013-07-20 08:35:00,
2013-07-20 03:50:00,75.1,75.0,29.94,NNE,32,0.0,0.0,100,0.00,,,0.00,weatherlink.com 1.10,2013-07-20 08:50:00,
2013-07-20 04:05:00,75.1,75.0,29.94,NNE,31,0.0,0.0,100,0.00,,,0.00,weatherlink.com 1.10,2013-07-20 09:05:00,
2013-07-20 04:20:00,75.1,75.0,29.94,ENE,59,0.0,0.0,100,0.00,,,0.00,weatherlink.com 1.10,2013-07-20 09:20:00,
2013-07-20 04:35:00,75.0,75.0,29.94,ENE,60,0.0,0.0,100,0.00,,,0.00,weatherlink.com 1.10,2013-07-20 09:35:00,
2013-07-20 04:50:00,74.9,75.0,29.94,ENE,59,0.0,0.0,100,0.01,,,0.01,weatherlink.com 1.10,2013-07-20 09:50:00,
2013-07-20 05:05:00,74.9,75.0,29.94,ENE,60,0.0,0.0,100,0.01,,,0.01,weatherlink.com 1.10,2013-07-20 10:05:00,
2013-07-20 05:20:00,74.7,75.0,29.95,ENE,60,0.0,0.0,100,0.01,,,0.01,weatherlink.com 1.10,2013-07-20 10:20:00,
2013-07-20 05:35:00,74.7,75.0,29.95,ENE,59,0.0,0.0,100,0.01,,,0.01,weatherlink.com 1.10,2013-07-20 10:35:00,
2013-07-20 05:50:00,74.6,75.0,29.95,ENE,61,0.0,0.0,100,0.00,,,0.01,weatherlink.com 1.10,2013-07-20 10:50:00,
2013-07-20 06:06:00,74.6,75.0,29.95,ENE,60,0.0,0.0,100,0.00,,,0.01,weatherlink.com 1.10,2013-07-20 11:06:00,
2013-07-20 06:21:00,74.4,74.0,29.95,ENE,61,0.0,0.0,100,0.00,,,0.01,weatherlink.com 1.10,2013-07-20 11:21:00,
2013-07-20 06:36:00,74.4,74.0,29.96,North,11,0.0,0.0,100,0.00,,,0.01,weatherlink.com 1.10,2013-07-20 11:36:00,
2013-07-20 06:51:00,74.6,75.0,29.96,WNW,300,0.0,0.0,100,0.00,,,0.01,weatherlink.com 1.10,2013-07-20 11:51:00,
2013-07-20 07:06:00,75.0,75.0,29.96,NE,46,0.0,0.0,100,0.00,,,0.01,weatherlink.com 1.10,2013-07-20 12:06:00,
2013-07-20 07:21:00,75.3,75.0,29.96,NNE,25,0.0,0.0,100,0.00,,,0.01,weatherlink.com 1.10,2013-07-20 12:21:00,
2013-07-20 07:36:00,76.0,76.0,29.96,NW,315,0.0,0.0,100,0.00,,,0.01,weatherlink.com 1.10,2013-07-20 12:36:00,
2013-07-20 07:51:00,76.7,77.0,29.96,NW,323,0.0,0.0,100,0.00,,,0.01,weatherlink.com 1.10,2013-07-20 12:51:00,
2013-07-20 08:06:00,78.0,78.0,29.96,ENE,60,0.0,0.0,100,0.00,,,0.01,weatherlink.com 1.10,2013-07-20 13:06:00,
2013-07-20 08:21:00,79.9,79.0,29.96,WNW,288,0.0,1.0,97,0.00,,,0.01,weatherlink.com 1.10,2013-07-20 13:21:00,
2013-07-20 08:36:00,81.0,79.0,29.97,NE,54,0.0,3.0,93,0.00,,,0.01,weatherlink.com 1.10,2013-07-20 13:36:00,
2013-07-20 08:51:00,82.9,79.0,29.96,NNW,340,0.0,2.0,88,0.00,,,0.01,weatherlink.com 1.10,2013-07-20 13:51:00,
2013-07-20 09:06:00,83.4,79.0,29.97,NE,53,0.0,2.0,85,0.00,,,0.01,weatherlink.com 1.10,2013-07-20 14:06:00,
2013-07-20 09:21:00,84.1,78.0,29.98,NE,50,0.0,3.0,82,0.00,,,0.01,weatherlink.com 1.10,2013-07-20 14:21:00,
2013-07-20 09:36:00,85.0,78.0,29.98,ENE,64,2.0,4.0,80,0.00,,,0.01,weatherlink.com 1.10,2013-07-20 14:36:00,
2013-07-20 09:51:00,86.1,78.0,29.98,NW,313,0.0,5.0,76,0.00,,,0.01,weatherlink.com 1.10,2013-07-20 14:51:00,
2013-07-20 10:06:00,86.9,79.0,29.98,West,263,0.0,2.0,76,0.00,,,0.01,weatherlink.com 1.10,2013-07-20 15:06:00,
2013-07-20 10:21:00,86.1,78.0,29.98,West,267,0.0,1.0,77,0.00,,,0.01,weatherlink.com 1.10,2013-07-20 15:21:00,
2013-07-20 10:36:00,87.2,77.0,29.98,ESE,122,0.0,4.0,72,0.00,,,0.01,weatherlink.com 1.10,2013-07-20 15:36:00,
2013-07-20 10:51:00,86.7,78.0,29.98,WNW,290,3.0,6.0,76,0.00,,,0.01,weatherlink.com 1.10,2013-07-20 15:51:00,
2013-07-20 11:06:00,84.3,78.0,29.98,SW,235,0.0,2.0,81,0.00,,,0.01,weatherlink.com 1.10,2013-07-20 16:06:00,
2013-07-20 11:21:00,84.6,79.0,29.98,SSE,168,1.0,2.0,82,0.00,,,0.01,weatherlink.com 1.10,2013-07-20 16:21:00,
2013-07-20 11:36:00,86.0,78.0,29.97,WNW,302,0.0,1.0,77,0.00,,,0.01,weatherlink.com 1.10,2013-07-20 16:36:00,
2013-07-20 11:51:00,86.7,79.0,29.97,South,179,1.0,3.0,77,0.00,,,0.01,weatherlink.com 1.10,2013-07-20 16:51:00,
2013-07-20 12:07:00,87.3,79.0,29.98,SE,145,1.0,4.0,77,0.00,,,0.01,weatherlink.com 1.10,2013-07-20 17:07:00,
2013-07-20 12:21:00,85.4,79.0,29.97,SSW,195,0.0,3.0,82,0.00,,,0.01,weatherlink.com 1.10,2013-07-20 17:21:00,
2013-07-20 12:36:00,82.3,77.0,29.98,NE,44,5.0,5.0,85,0.02,,,0.03,weatherlink.com 1.10,2013-07-20 17:36:00,
2013-07-20 12:51:00,79.9,77.0,29.97,NE,46,0.0,1.0,91,0.02,,,0.03,weatherlink.com 1.10,2013-07-20 17:51:00,
2013-07-20 13:06:00,80.6,78.0,29.97,NE,46,0.0,2.0,92,0.02,,,0.03,weatherlink.com 1.10,2013-07-20 18:06:00,
2013-07-20 13:21:00,82.9,79.0,29.97,NNE,20,0.0,2.0,89,0.02,,,0.03,weatherlink.com 1.10,2013-07-20 18:21:00,
2013-07-20 13:36:00,84.9,80.0,29.96,North,360,0.0,4.0,84,0.00,,,0.03,weatherlink.com 1.10,2013-07-20 18:36:00,
2013-07-20 14:06:00,88.1,78.0,29.95,SSE,167,8.0,8.0,72,0.00,,,0.03,weatherlink.com 1.10,2013-07-20 19:06:00,
2013-07-20 14:36:00,87.4,78.0,29.94,SSE,159,4.0,5.0,73,0.00,,,0.03,weatherlink.com 1.10,2013-07-20 19:36:00,
2013-07-20 14:51:00,86.6,77.0,29.95,South,186,1.0,5.0,73,0.00,,,0.03,weatherlink.com 1.10,2013-07-20 19:51:00,
2013-07-20 15:06:00,86.7,78.0,29.94,SW,232,2.0,4.0,76,0.00,,,0.03,weatherlink.com 1.10,2013-07-20 20:06:00,
2013-07-20 15:21:00,86.5,79.0,29.94,WSW,253,0.0,4.0,77,0.00,,,0.03,weatherlink.com 1.10,2013-07-20 20:21:00,
2013-07-20 15:36:00,86.2,78.0,29.94,South,177,2.0,4.0,77,0.00,,,0.03,weatherlink.com 1.10,2013-07-20 20:36:00,
2013-07-20 16:06:00,85.7,78.0,29.93,East,98,2.0,10.0,77,0.00,,,0.03,weatherlink.com 1.10,2013-07-20 21:06:00,
2013-07-20 16:21:00,85.5,78.0,29.92,SSW,208,0.0,5.0,78,0.00,,,0.03,weatherlink.com 1.10,2013-07-20 21:21:00,
2013-07-20 16:37:00,85.7,78.0,29.91,South,169,2.0,7.0,77,0.00,,,0.03,weatherlink.com 1.10,2013-07-20 21:37:00,
2013-07-20 16:52:00,86.8,78.0,29.91,SW,228,5.0,9.0,74,0.00,,,0.03,weatherlink.com 1.10,2013-07-20 21:52:00,
2013-07-20 17:37:00,85.4,79.0,29.92,SW,229,0.0,5.0,81,0.00,,,0.03,weatherlink.com 1.10,2013-07-20 22:37:00,
2013-07-20 17:52:00,85.2,78.0,29.92,SSE,163,12.0,12.0,79,0.00,,,0.03,weatherlink.com 1.10,2013-07-20 22:52:00,
2013-07-20 18:07:00,86.4,78.0,29.92,SW,226,0.0,11.0,76,0.00,,,0.03,weatherlink.com 1.10,2013-07-20 23:07:00,
2013-07-20 18:22:00,86.0,78.0,29.92,South,191,5.0,7.0,76,0.00,,,0.03,weatherlink.com 1.10,2013-07-20 23:22:00,
2013-07-20 18:52:00,84.9,78.0,29.92,South,174,0.0,4.0,79,0.00,,,0.03,weatherlink.com 1.10,2013-07-20 23:52:00,
2013-07-20 19:22:00,83.4,77.0,29.93,East,91,0.0,0.0,82,0.00,,,0.03,weatherlink.com 1.10,2013-07-21 00:22:00,
2013-07-20 19:37:00,82.2,77.0,29.93,East,91,0.0,0.0,84,0.00,,,0.03,weatherlink.com 1.10,2013-07-21 00:37:00,
2013-07-20 19:52:00,81.1,77.0,29.94,East,91,0.0,0.0,87,0.00,,,0.03,weatherlink.com 1.10,2013-07-21 00:52:00,
2013-07-20 20:07:00,80.0,77.0,29.93,East,91,0.0,0.0,89,0.00,,,0.03,weatherlink.com 1.10,2013-07-21 01:07:00,
2013-07-20 20:22:00,79.0,76.0,29.93,East,91,0.0,0.0,90,0.00,,,0.03,weatherlink.com 1.10,2013-07-21 01:22:00,
2013-07-20 20:37:00,78.8,76.0,29.94,SSE,155,2.0,2.0,91,0.00,,,0.03,weatherlink.com 1.10,2013-07-21 01:37:00,
2013-07-20 20:52:00,79.1,76.0,29.95,SSE,162,0.0,1.0,91,0.00,,,0.03,weatherlink.com 1.10,2013-07-21 01:52:00,
2013-07-20 21:07:00,78.5,76.0,29.95,SSE,162,0.0,0.0,92,0.00,,,0.03,weatherlink.com 1.10,2013-07-21 02:07:00,
2013-07-20 21:22:00,78.5,76.0,29.96,SSE,149,0.0,0.0,92,0.00,,,0.03,weatherlink.com 1.10,2013-07-21 02:22:00,
2013-07-20 21:37:00,78.2,76.0,29.96,SSE,149,0.0,0.0,93,0.00,,,0.03,weatherlink.com 1.10,2013-07-21 02:37:00,
2013-07-20 21:52:00,78.2,76.0,29.96,SSE,148,0.0,1.0,93,0.00,,,0.03,weatherlink.com 1.10,2013-07-21 02:52:00,
2013-07-20 22:07:00,78.7,76.0,29.97,SSE,155,0.0,2.0,92,0.00,,,0.03,weatherlink.com 1.10,2013-07-21 03:07:00,
2013-07-20 22:37:00,78.1,76.0,29.98,SW,215,0.0,0.0,93,0.00,,,0.03,weatherlink.com 1.10,2013-07-21 03:37:00,
2013-07-20 23:07:00,78.1,76.0,29.98,SSE,150,0.0,0.0,94,0.00,,,0.03,weatherlink.com 1.10,2013-07-21 04:07:00,
2013-07-20 23:22:00,78.3,76.0,29.98,SW,219,0.0,0.0,93,0.00,,,0.03,weatherlink.com 1.10,2013-07-21 04:22:00,
2013-07-20 23:37:00,78.3,76.0,29.98,West,259,0.0,0.0,92,0.00,,,0.03,weatherlink.com 1.10,2013-07-21 04:37:00,
2013-07-20 23:52:00,78.5,75.0,29.99,SSE,154,0.0,0.0,90,0.00,,,0.03,weatherlink.com 1.10,2013-07-21 04:52:00,